createdAt,value
2023-02-28T00:00:33.389Z,0.28
2023-02-28T00:03:00.538Z,0.62
2023-02-28T00:05:28.934Z,0.90
2023-02-28T00:07:56.174Z,0.96
2023-02-28T00:10:28.381Z,0.35
2023-02-28T00:12:58.223Z,0.56
2023-02-28T00:15:25.469Z,0.67
2023-02-28T00:17:52.593Z,0.54
2023-02-28T00:20:20.214Z,0.55
2023-02-28T00:22:49.448Z,0.53
2023-02-28T00:25:18.741Z,1.00
2023-02-28T00:27:46.099Z,1.06
2023-02-28T00:30:20.840Z,1.00
2023-02-28T00:32:47.696Z,0.51
2023-02-28T00:35:14.593Z,0.78
2023-02-28T00:37:41.560Z,0.86
2023-02-28T00:40:09.268Z,1.19
2023-02-28T00:42:36.334Z,0.64
2023-02-28T00:45:05.791Z,0.92
2023-02-28T00:47:33.553Z,0.93
2023-02-28T00:50:01.124Z,0.98
2023-02-28T00:52:28.175Z,0.80
2023-02-28T00:54:55.551Z,1.16
2023-02-28T00:57:22.545Z,0.61
2023-02-28T00:59:49.451Z,0.40
2023-02-28T01:02:16.385Z,0.65
2023-02-28T01:04:43.336Z,0.74
2023-02-28T01:07:10.257Z,0.64
2023-02-28T01:09:36.939Z,0.79
2023-02-28T01:12:04.038Z,0.73
2023-02-28T01:14:31.004Z,0.50
2023-02-28T01:16:57.886Z,0.79
2023-02-28T01:19:24.529Z,1.08
2023-02-28T01:21:51.416Z,1.04
2023-02-28T01:24:18.078Z,1.25
2023-02-28T01:26:44.934Z,0.98
2023-02-28T01:29:11.775Z,0.73
2023-02-28T01:31:38.707Z,0.81
2023-02-28T01:34:05.580Z,0.83
2023-02-28T01:36:32.307Z,1.13
2023-02-28T01:38:59.146Z,1.12
2023-02-28T01:41:30.463Z,1.31
2023-02-28T01:44:16.133Z,1.07
2023-02-28T01:46:43.979Z,0.90
2023-02-28T01:49:14.823Z,0.91
2023-02-28T01:51:51.842Z,0.53
2023-02-28T01:54:31.185Z,0.68
2023-02-28T01:57:08.902Z,0.75
2023-02-28T01:59:47.169Z,0.70
2023-02-28T02:02:15.210Z,0.47
2023-02-28T02:04:51.124Z,0.66
2023-02-28T02:07:18.382Z,1.08
2023-02-28T02:09:45.257Z,0.94
2023-02-28T02:12:16.530Z,1.32
2023-02-28T02:15:09.045Z,1.06
2023-02-28T02:17:42.277Z,0.83
2023-02-28T02:20:30.660Z,1.06
2023-02-28T02:23:22.015Z,0.55
2023-02-28T02:25:56.289Z,0.58
2023-02-28T02:29:04.733Z,0.96
2023-02-28T02:31:53.299Z,0.65
2023-02-28T02:34:44.628Z,0.85
2023-02-28T02:37:30.164Z,0.77
2023-02-28T02:40:02.995Z,0.75
2023-02-28T02:42:37.200Z,1.05
2023-02-28T02:45:18.697Z,0.91
2023-02-28T02:47:46.524Z,0.76
2023-02-28T02:50:19.156Z,0.98
2023-02-28T02:52:49.914Z,1.09
2023-02-28T02:55:18.550Z,0.72
2023-02-28T02:57:52.438Z,1.02
2023-02-28T03:00:21.874Z,1.19
2023-02-28T03:02:49.026Z,0.92
2023-02-28T03:05:27.232Z,0.94
2023-02-28T03:07:54.145Z,1.57
2023-02-28T03:10:28.356Z,1.09
2023-02-28T03:13:04.467Z,1.32
2023-02-28T03:15:40.728Z,1.27
2023-02-28T03:18:12.975Z,1.39
2023-02-28T03:20:50.208Z,0.84
2023-02-28T03:23:35.961Z,1.03
2023-02-28T03:26:08.936Z,0.78
2023-02-28T03:28:39.033Z,1.09
2023-02-28T03:31:17.110Z,0.81
2023-02-28T03:34:07.840Z,0.82
2023-02-28T03:36:44.968Z,0.90
2023-02-28T03:39:36.951Z,1.18
2023-02-28T03:42:10.127Z,0.72
2023-02-28T03:44:44.308Z,1.41
2023-02-28T03:47:18.929Z,1.27
2023-02-28T03:49:55.798Z,1.22
2023-02-28T03:52:24.910Z,1.70
2023-02-28T03:54:54.033Z,1.58
2023-02-28T03:57:36.012Z,1.68
2023-02-28T04:00:14.656Z,1.45
2023-02-28T04:02:41.682Z,1.30
2023-02-28T04:05:09.381Z,1.88
2023-02-28T04:07:36.331Z,1.72
2023-02-28T04:10:03.842Z,1.51
2023-02-28T04:12:30.910Z,1.77
2023-02-28T04:14:57.794Z,1.89
2023-02-28T04:17:24.514Z,1.63
2023-02-28T04:19:51.412Z,2.02
2023-02-28T04:22:18.946Z,2.01
2023-02-28T04:24:46.090Z,1.84
2023-02-28T04:27:12.954Z,1.61
2023-02-28T04:29:39.616Z,1.78
2023-02-28T04:32:06.633Z,1.86
2023-02-28T04:34:34.141Z,1.88
2023-02-28T04:37:16.997Z,1.93
2023-02-28T04:39:44.867Z,1.71
2023-02-28T04:42:12.838Z,1.86
2023-02-28T04:44:39.715Z,2.20
2023-02-28T04:47:06.512Z,2.12
2023-02-28T04:49:33.573Z,1.81
2023-02-28T04:52:00.430Z,0.98
2023-02-28T04:54:27.131Z,0.53
2023-02-28T04:56:54.021Z,0.76
2023-02-28T04:59:20.694Z,1.11
2023-02-28T05:01:49.332Z,1.41
2023-02-28T05:04:16.534Z,1.41
2023-02-28T05:06:43.541Z,1.22
2023-02-28T05:09:12.756Z,1.41
2023-02-28T05:11:40.682Z,0.94
2023-02-28T05:14:15.456Z,0.95
2023-02-28T05:16:42.524Z,1.19
2023-02-28T05:19:09.610Z,1.21
2023-02-28T05:21:38.416Z,0.99
2023-02-28T05:24:11.876Z,0.98
2023-02-28T05:26:41.260Z,0.94
2023-02-28T05:29:08.627Z,1.04
2023-02-28T05:31:35.592Z,0.77
2023-02-28T05:34:02.485Z,1.03
2023-02-28T05:36:29.166Z,0.89
2023-02-28T05:38:56.029Z,1.39
2023-02-28T05:41:22.913Z,1.04
2023-02-28T05:43:50.002Z,0.97
2023-02-28T05:46:17.130Z,1.05
2023-02-28T05:48:48.171Z,1.33
2023-02-28T05:51:15.152Z,1.19
2023-02-28T05:53:41.979Z,1.25
2023-02-28T05:56:08.641Z,1.00
2023-02-28T05:58:35.899Z,1.07
2023-02-28T06:01:41.903Z,0.93
2023-02-28T06:04:19.369Z,1.08
2023-02-28T06:06:52.888Z,0.99
2023-02-28T06:09:20.376Z,1.15
2023-02-28T06:11:47.399Z,1.08
2023-02-28T06:14:17.897Z,1.46
2023-02-28T06:16:44.863Z,0.69
2023-02-28T06:19:12.121Z,1.03
2023-02-28T06:21:38.997Z,1.14
2023-02-28T06:24:05.783Z,1.05
2023-02-28T06:26:33.124Z,0.75
2023-02-28T06:28:59.993Z,1.03
2023-02-28T06:31:27.189Z,1.39
2023-02-28T06:33:54.168Z,1.20
2023-02-28T06:36:21.083Z,1.14
2023-02-28T06:38:52.555Z,1.58
2023-02-28T06:41:19.512Z,1.23
2023-02-28T06:43:46.366Z,2.10
2023-02-28T06:46:14.711Z,1.89
2023-02-28T06:48:42.163Z,1.38
2023-02-28T06:51:15.296Z,1.81
2023-02-28T06:53:42.417Z,2.22
2023-02-28T06:56:11.688Z,2.44
2023-02-28T06:58:39.032Z,2.80
2023-02-28T07:01:06.334Z,3.23
2023-02-28T07:03:34.508Z,3.38
2023-02-28T07:06:02.177Z,3.84
2023-02-28T07:08:32.281Z,4.73
2023-02-28T07:10:59.500Z,5.00
2023-02-28T07:13:26.686Z,5.98
2023-02-28T07:16:01.164Z,7.58
2023-02-28T07:18:28.536Z,7.23
2023-02-28T07:20:55.490Z,7.95
2023-02-28T07:23:22.948Z,8.58
2023-02-28T07:25:51.372Z,9.27
2023-02-28T07:28:18.400Z,9.26
2023-02-28T07:30:45.328Z,8.28
2023-02-28T07:33:12.205Z,8.31
2023-02-28T07:35:38.950Z,9.53
2023-02-28T07:38:06.293Z,10.28
2023-02-28T07:40:33.217Z,9.21
2023-02-28T07:43:02.833Z,9.95
2023-02-28T07:45:30.016Z,10.04
2023-02-28T07:47:57.358Z,10.23
2023-02-28T07:50:26.986Z,9.96
2023-02-28T07:52:53.974Z,9.44
2023-02-28T07:55:20.870Z,9.32
2023-02-28T07:57:47.744Z,8.82
2023-02-28T08:00:15.043Z,8.88
2023-02-28T08:02:42.115Z,8.32
2023-02-28T08:05:09.418Z,7.85
2023-02-28T08:07:36.429Z,7.65
2023-02-28T08:10:03.949Z,7.54
2023-02-28T08:12:30.813Z,8.01
2023-02-28T08:14:57.636Z,7.70
2023-02-28T08:17:24.397Z,6.96
2023-02-28T08:19:51.398Z,7.87
2023-02-28T08:22:18.250Z,7.45
2023-02-28T08:24:45.057Z,8.01
2023-02-28T08:27:12.117Z,7.56
2023-02-28T08:29:39.587Z,7.19
2023-02-28T08:32:14.566Z,7.33
2023-02-28T08:34:48.161Z,6.41
2023-02-28T08:37:15.132Z,6.77
2023-02-28T08:39:42.075Z,6.67
2023-02-28T08:42:08.946Z,6.66
2023-02-28T08:44:35.679Z,6.68
2023-02-28T08:47:02.551Z,7.77
2023-02-28T08:49:29.836Z,6.31
2023-02-28T08:51:58.279Z,6.05
2023-02-28T08:54:25.641Z,6.11
2023-02-28T08:56:53.192Z,6.70
2023-02-28T08:59:20.073Z,7.22
2023-02-28T09:01:46.991Z,5.86
2023-02-28T09:04:17.101Z,5.95
2023-02-28T09:06:46.789Z,6.72
2023-02-28T09:09:13.692Z,6.89
2023-02-28T09:11:40.540Z,6.82
2023-02-28T09:14:07.202Z,6.86
2023-02-28T09:16:35.295Z,6.49
2023-02-28T09:19:02.774Z,5.98
2023-02-28T09:21:30.101Z,6.72
2023-02-28T09:23:57.176Z,7.18
2023-02-28T09:26:26.600Z,5.73
2023-02-28T09:28:54.207Z,6.30
2023-02-28T09:31:25.935Z,6.73
2023-02-28T09:33:55.213Z,6.95
2023-02-28T09:36:24.969Z,7.32
2023-02-28T09:38:54.296Z,7.46
2023-02-28T09:41:26.644Z,7.18
2023-02-28T09:43:57.061Z,7.64
2023-02-28T09:46:33.445Z,6.93
2023-02-28T09:49:04.045Z,7.19
2023-02-28T09:51:56.437Z,6.94
2023-02-28T09:54:24.925Z,7.36
2023-02-28T09:56:57.001Z,7.21
2023-02-28T09:59:38.003Z,7.47
2023-02-28T10:02:46.337Z,8.15
2023-02-28T10:05:15.921Z,7.91
2023-02-28T10:08:11.852Z,7.87
2023-02-28T10:10:44.980Z,8.36
2023-02-28T10:13:23.279Z,8.03
2023-02-28T10:15:53.941Z,7.25
2023-02-28T10:18:27.931Z,8.12
2023-02-28T10:20:56.899Z,8.02
2023-02-28T10:23:33.872Z,7.51
2023-02-28T10:26:07.232Z,7.56
2023-02-28T10:28:34.149Z,8.03
2023-02-28T10:31:01.318Z,8.05
2023-02-28T10:33:32.150Z,8.00
2023-02-28T10:35:59.776Z,7.21
2023-02-28T10:38:38.332Z,7.64
2023-02-28T10:41:12.336Z,7.54
2023-02-28T10:43:41.048Z,8.14
2023-02-28T10:46:10.996Z,7.12
2023-02-28T10:48:51.795Z,7.46
2023-02-28T10:51:20.326Z,7.33
2023-02-28T10:54:00.671Z,7.66
2023-02-28T10:56:28.833Z,7.97
2023-02-28T10:59:03.314Z,7.98
2023-02-28T11:01:33.469Z,8.86
2023-02-28T11:04:00.602Z,8.27
2023-02-28T11:06:32.882Z,8.27
2023-02-28T11:09:02.104Z,8.17
2023-02-28T11:11:30.930Z,7.96
2023-02-28T11:14:05.261Z,8.80
2023-02-28T11:16:37.240Z,7.33
2023-02-28T11:19:05.823Z,7.49
2023-02-28T11:21:35.988Z,8.64
2023-02-28T11:24:06.476Z,8.66
2023-02-28T11:26:51.396Z,7.39
2023-02-28T11:29:30.641Z,8.73
2023-02-28T11:32:08.566Z,8.50
2023-02-28T11:34:36.926Z,9.45
2023-02-28T11:37:07.683Z,9.22
2023-02-28T11:39:34.619Z,9.26
2023-02-28T11:42:19.923Z,8.86
2023-02-28T11:44:47.301Z,8.51
2023-02-28T11:47:30.119Z,9.19
2023-02-28T11:50:05.946Z,7.88
2023-02-28T11:52:56.289Z,8.13
2023-02-28T11:56:08.937Z,8.70
2023-02-28T11:58:46.687Z,8.10
2023-02-28T12:01:36.657Z,8.02
2023-02-28T12:04:27.188Z,8.40
2023-02-28T12:07:29.201Z,9.25
2023-02-28T12:10:06.444Z,8.00
2023-02-28T12:12:39.726Z,9.48
2023-02-28T12:15:23.525Z,9.60
2023-02-28T12:18:22.691Z,10.11
2023-02-28T12:21:04.067Z,9.11
2023-02-28T12:24:12.942Z,8.70
2023-02-28T12:26:41.638Z,8.03
2023-02-28T12:29:18.300Z,8.30
2023-02-28T12:31:50.791Z,8.23
2023-02-28T12:34:24.256Z,7.08
2023-02-28T12:36:53.495Z,6.50
2023-02-28T12:39:36.579Z,6.52
2023-02-28T12:42:15.576Z,6.84
2023-02-28T12:44:47.428Z,6.62
2023-02-28T12:47:17.733Z,7.16
2023-02-28T12:49:51.597Z,7.32
2023-02-28T12:52:41.029Z,8.11
2023-02-28T12:55:15.540Z,7.84
2023-02-28T12:57:48.335Z,8.46
2023-02-28T13:00:20.686Z,8.21
2023-02-28T13:03:00.824Z,7.91
2023-02-28T13:05:43.619Z,8.03
2023-02-28T13:09:13.661Z,7.56
2023-02-28T13:11:42.263Z,7.58
2023-02-28T13:14:20.874Z,7.17
2023-02-28T13:17:16.107Z,7.52
2023-02-28T13:19:59.094Z,7.45
2023-02-28T13:22:53.854Z,7.62
2023-02-28T13:25:23.799Z,7.42
2023-02-28T13:27:57.413Z,7.96
2023-02-28T13:30:59.781Z,7.95
2023-02-28T13:33:35.116Z,7.19
2023-02-28T13:36:08.023Z,7.40
2023-02-28T13:38:39.823Z,7.20
2023-02-28T13:41:31.944Z,7.75
2023-02-28T13:44:04.720Z,8.26
2023-02-28T13:46:34.735Z,8.16
2023-02-28T13:49:26.675Z,7.71
2023-02-28T13:51:56.732Z,8.01
2023-02-28T13:54:57.112Z,7.84
2023-02-28T13:57:42.201Z,7.62
2023-02-28T14:00:33.892Z,7.88
2023-02-28T14:03:26.161Z,7.28
2023-02-28T14:06:19.535Z,7.72
2023-02-28T14:09:24.526Z,8.33
2023-02-28T14:11:54.531Z,8.07
2023-02-28T14:14:36.718Z,7.80
2023-02-28T14:17:10.777Z,7.53
2023-02-28T14:19:39.531Z,7.63
2023-02-28T14:22:45.680Z,7.46
2023-02-28T14:25:35.812Z,7.42
2023-02-28T14:28:05.748Z,7.77
2023-02-28T14:30:44.819Z,7.99
2023-02-28T14:33:48.348Z,7.00
2023-02-28T14:36:23.057Z,7.37
2023-02-28T14:38:56.380Z,7.29
2023-02-28T14:41:39.463Z,7.36
2023-02-28T14:44:21.881Z,7.32
2023-02-28T14:46:55.156Z,7.31
2023-02-28T14:49:31.334Z,7.28
2023-02-28T14:52:18.708Z,7.16
2023-02-28T14:54:46.090Z,7.67
2023-02-28T14:57:28.075Z,7.03
2023-02-28T15:00:05.290Z,7.07
2023-02-28T15:02:35.943Z,6.80
2023-02-28T15:05:21.768Z,6.97
2023-02-28T15:07:49.905Z,7.32
2023-02-28T15:10:28.333Z,6.55
2023-02-28T15:13:00.346Z,5.97
2023-02-28T15:16:01.546Z,6.67
2023-02-28T15:18:38.362Z,6.54
2023-02-28T15:21:08.677Z,6.58
2023-02-28T15:23:37.590Z,6.40
2023-02-28T15:26:05.407Z,6.77
2023-02-28T15:28:32.436Z,6.43
2023-02-28T15:31:02.528Z,6.32
2023-02-28T15:33:31.526Z,6.27
2023-02-28T15:36:30.379Z,6.62
2023-02-28T15:38:59.576Z,6.60
2023-02-28T15:41:41.282Z,6.30
2023-02-28T15:44:37.981Z,6.36
2023-02-28T15:47:18.589Z,6.34
2023-02-28T15:49:49.755Z,6.42
2023-02-28T15:52:44.172Z,6.41
2023-02-28T15:55:20.304Z,6.12
2023-02-28T15:57:49.177Z,5.84
2023-02-28T16:00:20.337Z,5.91
2023-02-28T16:02:47.305Z,5.80
2023-02-28T16:05:33.064Z,6.23
2023-02-28T16:08:02.544Z,6.20
2023-02-28T16:10:30.711Z,6.04
2023-02-28T16:12:58.240Z,6.26
2023-02-28T16:15:30.812Z,5.78
2023-02-28T16:17:58.834Z,5.86
2023-02-28T16:20:30.635Z,5.92
2023-02-28T16:22:57.767Z,5.88
2023-02-28T16:25:30.039Z,5.85
2023-02-28T16:28:01.413Z,5.91
2023-02-28T16:30:32.675Z,6.11
2023-02-28T16:33:00.074Z,6.04
2023-02-28T16:35:27.026Z,5.71
2023-02-28T16:37:54.286Z,5.34
2023-02-28T16:40:24.509Z,5.51
2023-02-28T16:42:53.839Z,5.75
2023-02-28T16:45:26.135Z,5.86
2023-02-28T16:47:53.425Z,5.69
2023-02-28T16:50:25.751Z,5.78
2023-02-28T16:52:56.052Z,5.49
2023-02-28T16:55:24.648Z,5.53
2023-02-28T16:57:54.389Z,5.63
2023-02-28T17:00:21.605Z,5.64
2023-02-28T17:02:48.626Z,5.44
2023-02-28T17:05:16.134Z,5.32
2023-02-28T17:07:43.715Z,5.38
2023-02-28T17:10:21.807Z,5.11
2023-02-28T17:12:48.721Z,5.39
2023-02-28T17:15:17.274Z,5.39
2023-02-28T17:17:44.861Z,5.50
2023-02-28T17:20:17.635Z,5.50
2023-02-28T17:22:44.657Z,5.58
2023-02-28T17:25:12.200Z,5.29
2023-02-28T17:27:39.283Z,5.44
2023-02-28T17:30:18.148Z,5.54
2023-02-28T17:32:45.092Z,5.26
2023-02-28T17:35:12.343Z,5.49
2023-02-28T17:37:39.375Z,5.61
2023-02-28T17:40:06.999Z,5.46
2023-02-28T17:42:33.834Z,5.37
2023-02-28T17:45:00.489Z,5.22
2023-02-28T17:47:27.380Z,5.37
2023-02-28T17:49:54.294Z,5.37
2023-02-28T17:52:23.143Z,5.22
2023-02-28T17:54:50.076Z,5.67
2023-02-28T17:57:17.604Z,5.54
2023-02-28T17:59:45.041Z,5.32
2023-02-28T18:02:14.091Z,5.36
2023-02-28T18:04:41.236Z,5.59
2023-02-28T18:07:10.985Z,5.50
2023-02-28T18:09:37.834Z,5.10
2023-02-28T18:12:04.603Z,5.81
2023-02-28T18:14:31.488Z,5.39
2023-02-28T18:16:58.418Z,5.30
2023-02-28T18:19:25.474Z,5.49
2023-02-28T18:21:53.788Z,5.57
2023-02-28T18:24:22.796Z,5.38
2023-02-28T18:26:49.766Z,5.88
2023-02-28T18:29:19.803Z,5.64
2023-02-28T18:31:48.863Z,5.57
2023-02-28T18:34:16.042Z,5.65
2023-02-28T18:36:42.927Z,5.63
2023-02-28T18:39:12.224Z,5.68
2023-02-28T18:41:39.878Z,5.59
2023-02-28T18:44:18.749Z,5.86
2023-02-28T18:46:46.758Z,5.62
2023-02-28T18:49:13.850Z,5.75
2023-02-28T18:51:45.321Z,5.78
2023-02-28T18:54:13.764Z,5.55
2023-02-28T18:56:40.746Z,5.75
2023-02-28T18:59:07.822Z,6.06
2023-02-28T19:01:34.762Z,5.76
2023-02-28T19:04:03.671Z,5.86
2023-02-28T19:06:31.672Z,5.92
2023-02-28T19:09:01.182Z,6.01
2023-02-28T19:11:28.768Z,6.05
2023-02-28T19:13:56.007Z,6.20
2023-02-28T19:16:23.216Z,6.49
2023-02-28T19:18:50.351Z,6.42
2023-02-28T19:21:19.106Z,6.41
2023-02-28T19:23:46.013Z,6.54
2023-02-28T19:26:15.897Z,6.41
2023-02-28T19:28:43.261Z,6.93
2023-02-28T19:31:30.520Z,6.42
2023-02-28T19:33:58.965Z,6.40
2023-02-28T19:36:26.139Z,6.60
2023-02-28T19:38:53.821Z,6.81
2023-02-28T19:41:21.594Z,6.68
2023-02-28T19:43:48.481Z,6.28
2023-02-28T19:46:15.429Z,6.66
2023-02-28T19:48:44.953Z,7.21
2023-02-28T19:51:13.996Z,7.27
2023-02-28T19:53:42.396Z,6.76
2023-02-28T19:56:09.957Z,6.49
2023-02-28T19:58:37.111Z,6.66
2023-02-28T20:01:11.997Z,6.57
2023-02-28T20:03:38.985Z,6.19
2023-02-28T20:06:09.869Z,6.38
2023-02-28T20:08:38.071Z,6.02
2023-02-28T20:11:10.244Z,5.75
2023-02-28T20:13:37.824Z,6.05
2023-02-28T20:16:07.148Z,5.84
2023-02-28T20:18:34.689Z,5.85
2023-02-28T20:21:02.075Z,5.65
2023-02-28T20:23:29.560Z,5.27
2023-02-28T20:26:02.327Z,5.78
2023-02-28T20:28:29.436Z,5.39
2023-02-28T20:30:56.850Z,5.92
2023-02-28T20:33:24.276Z,6.08
2023-02-28T20:35:52.972Z,5.66
2023-02-28T20:38:20.423Z,5.60
2023-02-28T20:40:47.356Z,5.70
2023-02-28T20:43:14.201Z,5.58
2023-02-28T20:45:40.902Z,5.57
2023-02-28T20:48:07.814Z,5.43
2023-02-28T20:50:34.695Z,5.34
2023-02-28T20:53:01.565Z,5.25
2023-02-28T20:55:28.466Z,5.19
2023-02-28T20:57:55.380Z,5.21
2023-02-28T21:00:22.799Z,5.38
2023-02-28T21:02:49.822Z,4.92
2023-02-28T21:05:17.976Z,5.16
2023-02-28T21:07:44.833Z,5.27
2023-02-28T21:10:11.871Z,5.44
2023-02-28T21:12:38.734Z,5.59
2023-02-28T21:15:05.571Z,5.36
2023-02-28T21:17:32.502Z,5.49
2023-02-28T21:19:59.369Z,5.53
2023-02-28T21:22:26.277Z,5.40
2023-02-28T21:24:53.153Z,5.35
2023-02-28T21:27:20.109Z,4.81
2023-02-28T21:29:47.005Z,4.78
2023-02-28T21:32:14.923Z,4.86
2023-02-28T21:34:41.864Z,4.94
2023-02-28T21:37:08.743Z,5.18
2023-02-28T21:39:35.958Z,4.81
2023-02-28T21:42:04.281Z,4.80
2023-02-28T21:44:32.054Z,4.16
2023-02-28T21:47:02.408Z,3.99
2023-02-28T21:49:29.804Z,3.87
2023-02-28T21:51:57.237Z,4.03
2023-02-28T21:54:24.230Z,4.27
2023-02-28T21:56:51.446Z,4.02
2023-02-28T21:59:18.943Z,3.85
2023-02-28T22:01:46.227Z,3.90
2023-02-28T22:04:21.421Z,3.49
2023-02-28T22:06:53.800Z,3.12
2023-02-28T22:09:21.129Z,3.09
2023-02-28T22:11:48.270Z,3.35
2023-02-28T22:14:15.386Z,3.15
2023-02-28T22:16:57.810Z,2.82
2023-02-28T22:19:25.490Z,2.92
2023-02-28T22:21:54.060Z,3.71
2023-02-28T22:24:24.540Z,3.63
2023-02-28T22:26:53.117Z,3.44
2023-02-28T22:29:20.030Z,2.84
2023-02-28T22:31:46.802Z,3.00
2023-02-28T22:34:13.785Z,2.60
2023-02-28T22:36:41.125Z,3.43
2023-02-28T22:39:08.272Z,3.71
2023-02-28T22:41:35.171Z,4.02
2023-02-28T22:44:03.643Z,4.06
2023-02-28T22:46:32.572Z,3.64
2023-02-28T22:49:01.301Z,4.26
2023-02-28T22:51:29.183Z,4.24
2023-02-28T22:53:56.810Z,4.00
2023-02-28T22:56:25.033Z,4.57
2023-02-28T22:58:59.720Z,3.66
2023-02-28T23:01:29.111Z,3.77
2023-02-28T23:03:56.175Z,4.20
2023-02-28T23:06:35.026Z,4.15
2023-02-28T23:09:05.171Z,4.13
2023-02-28T23:11:39.863Z,4.47
2023-02-28T23:14:07.151Z,4.64
2023-02-28T23:17:00.035Z,5.11
2023-02-28T23:19:31.793Z,5.18
2023-02-28T23:21:59.838Z,5.44
2023-02-28T23:24:29.810Z,5.45
2023-02-28T23:26:59.720Z,5.96
2023-02-28T23:29:27.808Z,5.91
2023-02-28T23:31:55.205Z,6.15
2023-02-28T23:34:30.615Z,5.94
2023-02-28T23:36:59.833Z,5.93
2023-02-28T23:39:27.899Z,5.92
2023-02-28T23:41:55.556Z,5.96
2023-02-28T23:44:22.732Z,6.26
2023-02-28T23:46:52.268Z,5.90
2023-02-28T23:49:20.182Z,6.26
2023-02-28T23:51:49.532Z,5.39
2023-02-28T23:54:17.667Z,5.46
2023-02-28T23:56:44.916Z,5.44
2023-02-28T23:59:12.093Z,5.53
